Time;durP1;ratioP1;P1;durP2;ratioP2;P2;SDS_P1;SDS_P2;PMS_P1;PMS_P2;Temp;Humidity;BMP_temperature;BMP_pressure;BME280_temperature;BME280_humidity;BME280_pressure;Samples;Min_cycle;Max_cycle;Signal;HPM_P1;HPM_P2
2021/12/26 00:00:56;;;;;;;5.57;2.10;;;1.30;90.80;;;;;;4939142;29;20406;-89
2021/12/26 00:03:29;;;;;;;4.83;2.50;;;1.30;91.00;;;;;;4955154;29;20038;-89
2021/12/26 00:05:57;;;;;;;5.83;2.27;;;1.30;91.10;;;;;;4939282;29;20505;-89
2021/12/26 00:08:23;;;;;;;4.20;2.20;;;1.30;91.20;;;;;;4938662;29;20027;-89
2021/12/26 00:10:50;;;;;;;6.93;2.30;;;1.30;91.10;;;;;;4939467;29;20118;-89
2021/12/26 00:13:17;;;;;;;4.47;2.20;;;1.40;91.10;;;;;;4954987;29;20118;-89
2021/12/26 00:15:43;;;;;;;6.83;2.37;;;1.40;91.00;;;;;;4938964;29;20109;-89
2021/12/26 00:18:11;;;;;;;6.20;2.43;;;1.40;91.10;;;;;;4938585;29;20498;-89
2021/12/26 00:20:39;;;;;;;4.90;2.13;;;1.50;91.00;;;;;;4954730;29;20035;-89
2021/12/26 00:23:05;;;;;;;4.73;2.27;;;1.40;91.20;;;;;;4938780;29;20178;-89
2021/12/26 00:25:32;;;;;;;4.80;2.17;;;1.40;91.10;;;;;;4938802;29;20508;-89
2021/12/26 00:27:59;;;;;;;5.07;2.43;;;1.40;91.00;;;;;;4938989;29;20394;-88
2021/12/26 00:30:25;;;;;;;5.50;2.40;;;1.30;91.40;;;;;;4938929;29;20479;-89
2021/12/26 00:32:52;;;;;;;5.63;2.23;;;1.30;91.50;;;;;;4939024;29;20031;-88
2021/12/26 00:35:20;;;;;;;5.20;2.30;;;1.30;91.70;;;;;;4938869;29;20090;-89
2021/12/26 00:37:47;;;;;;;5.27;2.20;;;1.40;91.60;;;;;;4938740;29;20118;-89
2021/12/26 00:40:16;;;;;;;4.77;1.90;;;1.40;91.60;;;;;;4938736;29;20038;-89
2021/12/26 00:42:42;;;;;;;3.40;2.00;;;1.40;91.80;;;;;;4954364;29;20032;-89
2021/12/26 00:45:08;;;;;;;4.77;2.17;;;1.40;91.80;;;;;;4938396;29;20036;-89
2021/12/26 00:47:34;;;;;;;5.47;2.40;;;1.40;91.90;;;;;;4937916;29;20122;-90
2021/12/26 00:50:02;;;;;;;4.57;2.23;;;1.40;92.40;;;;;;4938372;29;20106;-90
2021/12/26 00:52:28;;;;;;;4.57;2.20;;;1.40;92.30;;;;;;4937541;29;20042;-89
2021/12/26 00:54:54;;;;;;;4.27;1.83;;;1.40;92.10;;;;;;4954069;29;20039;-89
2021/12/26 00:57:20;;;;;;;5.20;2.40;;;1.40;92.20;;;;;;4937948;29;20188;-89
2021/12/26 00:59:45;;;;;;;5.43;2.37;;;1.40;92.10;;;;;;4937683;29;20118;-89
2021/12/26 01:02:12;;;;;;;3.83;2.07;;;1.40;92.70;;;;;;4937901;29;20027;-88
2021/12/26 01:04:39;;;;;;;4.90;2.37;;;1.40;92.60;;;;;;4954018;29;20449;-90
2021/12/26 01:07:19;;;;;;;5.10;2.33;;;1.50;92.60;;;;;;4937967;29;20034;-89
2021/12/26 01:09:49;;;;;;;6.63;2.30;;;1.40;92.50;;;;;;4953429;29;20043;-89
2021/12/26 01:12:16;;;;;;;5.07;2.30;;;1.40;92.70;;;;;;4937759;29;20113;-89
2021/12/26 01:14:51;;;;;;;4.90;2.47;;;1.40;92.80;;;;;;4954007;29;20035;-89
2021/12/26 01:17:34;;;;;;;5.63;2.00;;;1.30;93.20;;;;;;4939552;29;20035;-89
2021/12/26 01:20:45;;;;;;;5.70;2.30;;;1.30;92.90;;;;;;4953216;29;20178;-89
2021/12/26 01:23:13;;;;;;;4.37;2.20;;;1.40;93.00;;;;;;4937987;29;20051;-89
2021/12/26 01:25:39;;;;;;;4.72;2.35;;;1.40;92.90;;;;;;4938019;29;20062;-89
2021/12/26 01:28:06;;;;;;;5.33;2.53;;;1.40;92.90;;;;;;4953374;29;20495;-89
2021/12/26 01:30:34;;;;;;;5.17;2.40;;;1.30;93.10;;;;;;4953498;29;20038;-89
2021/12/26 01:33:00;;;;;;;6.20;2.37;;;1.30;93.00;;;;;;4937781;29;20513;-90
2021/12/26 01:35:36;;;;;;;5.30;2.63;;;1.40;93.10;;;;;;4938928;29;20085;-89
2021/12/26 01:38:19;;;;;;;6.60;2.80;;;1.40;93.30;;;;;;4939256;29;20455;-89
2021/12/26 01:41:09;;;;;;;4.60;2.60;;;1.40;93.00;;;;;;4939615;29;20034;-89
2021/12/26 01:43:48;;;;;;;6.73;2.60;;;1.40;93.40;;;;;;4939124;29;20035;-89
2021/12/26 01:46:28;;;;;;;4.17;2.53;;;1.30;93.40;;;;;;4939020;29;20038;-89
2021/12/26 01:49:24;;;;;;;4.73;2.40;;;1.30;93.50;;;;;;4937047;29;20032;-89
2021/12/26 01:51:52;;;;;;;5.33;2.30;;;1.40;93.70;;;;;;4936700;29;20054;-89
2021/12/26 01:54:29;;;;;;;4.03;2.10;;;1.30;93.60;;;;;;4937169;29;20035;-89
2021/12/26 01:56:56;;;;;;;5.37;2.43;;;1.20;93.70;;;;;;4937098;29;20371;-89
2021/12/26 01:59:22;;;;;;;6.43;2.57;;;1.20;93.90;;;;;;4952668;29;20525;-89
2021/12/26 02:01:55;;;;;;;7.27;2.83;;;1.30;93.80;;;;;;4937578;29;20031;-89
2021/12/26 02:04:23;;;;;;;5.05;2.35;;;1.20;93.90;;;;;;4937035;29;20029;-89
2021/12/26 02:06:49;;;;;;;6.97;2.90;;;1.20;94.00;;;;;;4937013;29;20031;-89
2021/12/26 02:09:16;;;;;;;5.33;2.53;;;1.20;94.20;;;;;;4936461;29;20406;-90
2021/12/26 02:11:42;;;;;;;6.33;2.83;;;1.20;94.30;;;;;;4936822;29;20031;-89
2021/12/26 02:14:09;;;;;;;3.93;2.10;;;1.20;94.50;;;;;;4937130;29;20122;-89
2021/12/26 02:16:55;;;;;;;4.80;2.50;;;1.20;94.40;;;;;;4953916;29;20410;-89
2021/12/26 02:19:21;;;;;;;4.10;2.20;;;1.20;94.60;;;;;;4936385;29;20118;-89
2021/12/26 02:24:23;;;;;;;6.20;3.03;;;1.20;94.70;;;;;;4952945;29;20034;-89
2021/12/26 02:29:36;;;;;;;5.50;2.23;;;1.20;94.90;;;;;;4952218;29;20034;-89
2021/12/26 02:32:01;;;;;;;4.63;2.30;;;1.20;95.00;;;;;;4936825;29;20035;-88
2021/12/26 02:34:27;;;;;;;6.73;2.90;;;1.20;94.90;;;;;;4936866;29;20028;-89
2021/12/26 02:36:53;;;;;;;5.60;2.40;;;1.30;94.80;;;;;;4952773;29;20660;-89
2021/12/26 02:39:19;;;;;;;7.33;2.37;;;1.30;94.80;;;;;;4952725;29;20032;-89
2021/12/26 02:41:46;;;;;;;6.83;2.47;;;1.30;95.00;;;;;;4952488;29;20118;-88
2021/12/26 02:44:12;;;;;;;6.90;2.77;;;1.30;95.00;;;;;;4936716;29;20079;-88
2021/12/26 02:46:40;;;;;;;8.07;2.40;;;1.30;94.90;;;;;;4952538;29;20059;-88
2021/12/26 02:49:08;;;;;;;6.97;2.37;;;1.30;94.90;;;;;;4936689;29;20063;-89
2021/12/26 02:51:34;;;;;;;4.67;2.30;;;1.30;95.10;;;;;;4952525;29;20041;-88
2021/12/26 02:54:00;;;;;;;6.13;2.57;;;1.30;95.00;;;;;;4936576;29;20027;-89
2021/12/26 02:56:28;;;;;;;6.63;2.50;;;1.30;95.20;;;;;;4936392;29;20482;-89
2021/12/26 02:58:54;;;;;;;6.37;2.70;;;1.30;95.30;;;;;;4951997;29;20046;-89
2021/12/26 03:01:23;;;;;;;4.67;2.47;;;1.30;95.30;;;;;;4936132;29;20031;-89
2021/12/26 03:03:50;;;;;;;5.57;2.40;;;1.30;95.30;;;;;;4952484;29;20031;-89
2021/12/26 03:06:34;;;;;;;5.80;2.50;;;1.30;95.40;;;;;;4936241;29;20114;-89
2021/12/26 03:09:01;;;;;;;6.70;2.60;;;1.30;95.80;;;;;;4935934;29;20039;-89
2021/12/26 03:11:27;;;;;;;6.10;2.60;;;1.30;95.40;;;;;;4952350;29;20127;-89
2021/12/26 03:13:53;;;;;;;5.03;2.40;;;1.30;95.30;;;;;;4936337;29;20063;-89
2021/12/26 03:16:18;;;;;;;6.23;2.43;;;1.30;95.60;;;;;;4955820;29;20118;-89
2021/12/26 03:18:44;;;;;;;4.57;2.40;;;1.30;95.70;;;;;;4955412;29;20332;-89
2021/12/26 03:21:11;;;;;;;6.20;2.90;;;1.30;95.60;;;;;;4955363;29;20074;-89
2021/12/26 03:23:40;;;;;;;5.13;2.37;;;1.30;95.70;;;;;;4956892;28;20023;-90
2021/12/26 03:26:06;;;;;;;4.57;2.30;;;1.40;95.80;;;;;;4939703;29;20031;-90
2021/12/26 03:28:33;;;;;;;7.90;2.63;;;1.40;95.80;;;;;;4939240;29;20502;-89
2021/12/26 03:31:02;;;;;;;3.78;2.33;;;1.40;95.70;;;;;;4939786;29;20548;-89
2021/12/26 03:33:30;;;;;;;5.05;2.22;;;1.40;95.60;;;;;;4939940;29;20043;-89
2021/12/26 03:35:56;;;;;;;4.97;2.40;;;1.30;95.60;;;;;;4955405;29;20173;-89
2021/12/26 03:38:23;;;;;;;6.77;2.70;;;1.30;95.60;;;;;;4954945;29;20031;-89
2021/12/26 03:40:51;;;;;;;4.60;2.20;;;1.30;95.70;;;;;;4955446;29;20481;-89
2021/12/26 03:43:18;;;;;;;6.07;2.60;;;1.40;95.70;;;;;;4939705;29;20027;-90
2021/12/26 03:45:48;;;;;;;5.70;2.57;;;1.40;95.60;;;;;;4939357;29;20494;-89
2021/12/26 03:48:16;;;;;;;5.13;2.40;;;1.30;95.70;;;;;;4938869;29;20122;-90
2021/12/26 03:50:42;;;;;;;6.23;2.27;;;1.30;95.90;;;;;;4939066;29;20494;-89
2021/12/26 03:53:09;;;;;;;5.10;2.40;;;1.30;95.90;;;;;;4939126;29;20035;-89
2021/12/26 03:55:36;;;;;;;5.23;2.37;;;1.30;95.90;;;;;;4939222;29;20110;-89
2021/12/26 03:58:02;;;;;;;6.23;2.50;;;1.30;95.70;;;;;;4938610;29;20039;-89
2021/12/26 04:00:28;;;;;;;5.73;2.60;;;1.30;95.80;;;;;;4938959;29;20066;-89
2021/12/26 04:02:54;;;;;;;5.30;2.57;;;1.30;96.00;;;;;;4939121;29;20492;-89
2021/12/26 04:05:21;;;;;;;5.33;2.37;;;1.30;96.10;;;;;;4954855;29;20069;-89
2021/12/26 04:07:47;;;;;;;5.63;2.70;;;1.30;96.00;;;;;;4954425;29;20051;-90
2021/12/26 04:10:17;;;;;;;5.80;2.63;;;1.30;96.00;;;;;;4939237;29;20118;-89
2021/12/26 04:12:47;;;;;;;5.33;2.43;;;1.30;95.90;;;;;;4938925;29;20077;-89
2021/12/26 04:15:16;;;;;;;6.97;3.37;;;1.30;96.00;;;;;;4938872;29;20031;-89
2021/12/26 04:17:42;;;;;;;5.03;2.80;;;1.30;96.00;;;;;;4938266;29;20450;-89
2021/12/26 04:20:10;;;;;;;5.73;2.40;;;1.30;95.80;;;;;;4938728;29;20042;-89
2021/12/26 04:22:36;;;;;;;5.77;2.50;;;1.30;96.00;;;;;;4954434;29;20118;-89
2021/12/26 04:25:03;;;;;;;3.83;2.20;;;1.30;96.10;;;;;;4954635;29;20498;-89
2021/12/26 04:27:29;;;;;;;4.87;2.57;;;1.40;96.20;;;;;;4953064;29;20513;-89
2021/12/26 04:29:55;;;;;;;5.70;2.57;;;1.30;96.10;;;;;;4938497;29;20031;-89
2021/12/26 04:32:23;;;;;;;4.20;2.33;;;1.30;96.20;;;;;;4954292;29;20042;-89
2021/12/26 04:34:49;;;;;;;5.90;2.50;;;1.40;96.10;;;;;;4938484;29;20035;-90
2021/12/26 04:37:16;;;;;;;5.33;2.87;;;1.40;95.80;;;;;;4938602;29;20499;-89
2021/12/26 04:39:41;;;;;;;8.80;2.67;;;1.40;95.70;;;;;;4937821;29;20102;-89
2021/12/26 04:42:08;;;;;;;6.17;2.67;;;1.40;95.60;;;;;;4938172;29;20066;-89
2021/12/26 04:44:53;;;;;;;5.53;2.40;;;1.50;95.60;;;;;;4954755;29;20070;-89
2021/12/26 04:47:46;;;;;;;7.33;2.90;;;1.40;95.70;;;;;;4946114;29;20432;-89
2021/12/26 04:50:24;;;;;;;5.67;2.73;;;1.30;95.80;;;;;;4954011;29;20066;-89
2021/12/26 04:52:56;;;;;;;4.67;2.20;;;1.30;95.80;;;;;;4938892;29;20031;-89
2021/12/26 04:55:25;;;;;;;4.73;2.30;;;1.30;95.90;;;;;;4938142;29;20133;-90
2021/12/26 04:57:52;;;;;;;4.78;2.35;;;1.30;95.80;;;;;;4937426;29;20422;-89
2021/12/26 05:00:21;;;;;;;5.03;2.60;;;1.30;95.90;;;;;;4938008;29;20059;-88
2021/12/26 05:02:48;;;;;;;7.73;2.50;;;1.30;95.90;;;;;;4937853;29;20042;-89
2021/12/26 05:05:14;;;;;;;4.77;2.40;;;1.30;95.90;;;;;;4938016;29;20167;-89
2021/12/26 05:07:41;;;;;;;6.20;2.70;;;1.30;95.80;;;;;;4953339;29;20546;-90
2021/12/26 05:10:10;;;;;;;4.90;2.50;;;1.30;96.10;;;;;;4937822;29;20031;-89
2021/12/26 05:12:36;;;;;;;4.97;2.60;;;1.30;96.00;;;;;;4937887;29;20035;-89
2021/12/26 05:15:04;;;;;;;4.83;2.60;;;1.30;95.90;;;;;;4953862;29;20042;-89
2021/12/26 05:17:31;;;;;;;4.45;2.47;;;1.30;95.90;;;;;;4953208;29;20061;-89
2021/12/26 05:19:57;;;;;;;5.00;2.40;;;1.30;95.70;;;;;;4937523;29;20039;-89
2021/12/26 05:22:24;;;;;;;6.73;2.30;;;1.30;95.70;;;;;;4937475;29;20037;-89
2021/12/26 05:24:51;;;;;;;4.60;2.53;;;1.30;95.50;;;;;;4937591;29;20078;-89
2021/12/26 05:27:16;;;;;;;6.03;2.63;;;1.30;95.80;;;;;;4937488;29;20033;-89
2021/12/26 05:29:42;;;;;;;4.00;2.20;;;1.20;95.80;;;;;;4952841;29;20023;-89
2021/12/26 05:32:09;;;;;;;5.00;2.30;;;1.30;95.80;;;;;;4937514;29;20073;-89
2021/12/26 05:34:35;;;;;;;5.17;2.47;;;1.30;95.90;;;;;;4937551;29;20502;-89
2021/12/26 05:37:02;;;;;;;4.80;2.37;;;1.30;95.80;;;;;;4937017;28;20087;-89
2021/12/26 05:39:29;;;;;;;5.83;2.80;;;1.30;95.90;;;;;;4952829;29;20042;-89
2021/12/26 05:41:55;;;;;;;4.27;2.30;;;1.30;96.00;;;;;;4937092;29;20035;-90
2021/12/26 05:44:31;;;;;;;6.77;2.53;;;1.20;96.10;;;;;;4938807;29;20033;-89
2021/12/26 05:47:00;;;;;;;6.07;2.60;;;1.20;96.20;;;;;;4937372;29;20027;-89
2021/12/26 05:49:30;;;;;;;6.33;2.33;;;1.20;96.20;;;;;;4937298;29;20536;-89
2021/12/26 05:52:06;;;;;;;5.30;2.33;;;1.20;96.20;;;;;;4953105;29;20113;-89
2021/12/26 05:54:49;;;;;;;5.83;2.57;;;1.30;96.20;;;;;;4938940;29;20034;-89
2021/12/26 05:57:15;;;;;;;5.63;2.47;;;1.20;96.50;;;;;;4937001;29;20451;-89
2021/12/26 05:59:43;;;;;;;4.73;2.30;;;1.20;96.30;;;;;;4936593;29;20062;-89
2021/12/26 06:02:09;;;;;;;5.87;2.67;;;1.20;96.20;;;;;;4952695;29;20114;-89
2021/12/26 06:04:37;;;;;;;5.17;2.57;;;1.30;96.10;;;;;;4937231;29;20035;-90
2021/12/26 06:07:03;;;;;;;3.77;2.10;;;1.30;96.10;;;;;;4936920;29;20027;-89
2021/12/26 06:09:29;;;;;;;4.90;2.10;;;1.30;96.10;;;;;;4962729;23;20043;-86
2021/12/26 06:11:56;;;;;;;6.50;2.67;;;1.30;96.20;;;;;;4940065;28;20086;-86
2021/12/26 06:14:21;;;;;;;5.67;2.90;;;1.30;96.10;;;;;;4956170;28;20031;-86
2021/12/26 06:16:47;;;;;;;4.83;2.27;;;1.20;96.30;;;;;;4955948;28;20069;-87
2021/12/26 06:19:32;;;;;;;4.90;2.47;;;1.20;96.20;;;;;;4957767;28;20295;-84
2021/12/26 06:22:27;;;;;;;5.20;2.80;;;1.20;96.30;;;;;;4964211;28;20038;-86
2021/12/26 06:25:13;;;;;;;4.50;2.40;;;1.20;96.50;;;;;;4973359;28;20085;-86
2021/12/26 06:27:55;;;;;;;6.77;2.30;;;1.20;96.50;;;;;;4955497;28;20058;-85
2021/12/26 06:30:41;;;;;;;5.10;2.13;;;1.20;96.50;;;;;;4958535;28;20035;-86
2021/12/26 06:33:25;;;;;;;5.43;2.70;;;1.20;96.60;;;;;;4958675;28;20052;-85
2021/12/26 06:36:23;;;;;;;5.67;2.70;;;1.30;96.80;;;;;;4930113;28;20043;-86
2021/12/26 06:39:07;;;;;;;4.50;2.27;;;1.20;96.80;;;;;;4957897;28;20445;-85
2021/12/26 06:41:51;;;;;;;5.43;2.70;;;1.30;97.10;;;;;;4958341;28;20182;-86
2021/12/26 06:44:35;;;;;;;5.30;2.20;;;1.30;96.70;;;;;;4958463;28;20105;-86
2021/12/26 06:47:15;;;;;;;6.43;2.60;;;1.30;96.90;;;;;;4941772;28;20035;-85
2021/12/26 06:49:47;;;;;;;5.27;2.43;;;1.20;96.90;;;;;;4956434;28;20099;-86
2021/12/26 06:52:12;;;;;;;5.07;2.60;;;1.30;97.10;;;;;;4959595;28;20035;-85
2021/12/26 06:54:40;;;;;;;5.30;2.50;;;1.30;97.30;;;;;;4943523;28;20042;-86
2021/12/26 06:57:06;;;;;;;6.80;2.73;;;1.20;97.30;;;;;;4959414;28;20093;-85
2021/12/26 06:59:32;;;;;;;6.00;2.47;;;1.20;97.50;;;;;;4943055;28;20035;-85
2021/12/26 07:01:58;;;;;;;4.70;2.50;;;1.30;97.50;;;;;;4944404;28;20421;-86
2021/12/26 07:04:40;;;;;;;5.23;2.50;;;1.20;97.40;;;;;;4948861;28;20034;-85
2021/12/26 07:07:05;;;;;;;4.33;2.60;;;1.20;97.50;;;;;;4963050;28;20031;-85
2021/12/26 07:09:32;;;;;;;5.60;2.67;;;1.30;97.60;;;;;;4943766;28;20445;-86
2021/12/26 07:11:59;;;;;;;6.00;2.50;;;1.30;97.50;;;;;;4943602;28;20047;-86
2021/12/26 07:14:40;;;;;;;5.30;2.60;;;1.30;97.60;;;;;;4945341;28;20043;-86
2021/12/26 07:17:10;;;;;;;4.37;2.20;;;1.30;97.60;;;;;;4960266;28;20082;-86
2021/12/26 07:19:37;;;;;;;5.75;2.92;;;1.30;97.80;;;;;;4962461;28;20031;-85
2021/12/26 07:22:12;;;;;;;6.33;2.50;;;1.30;97.70;;;;;;4946981;28;20042;-85
2021/12/26 07:24:43;;;;;;;7.40;2.40;;;1.40;97.70;;;;;;4944915;28;20095;-85
2021/12/26 07:27:13;;;;;;;7.77;2.63;;;1.30;97.70;;;;;;4944344;28;20478;-86
2021/12/26 07:30:03;;;;;;;5.50;2.60;;;1.30;97.60;;;;;;4962162;28;20019;-86
2021/12/26 07:32:33;;;;;;;5.53;2.50;;;1.30;97.80;;;;;;4943182;28;20042;-84
2021/12/26 07:35:00;;;;;;;5.13;2.80;;;1.30;98.10;;;;;;4942998;28;20027;-85
2021/12/26 07:37:27;;;;;;;7.07;2.90;;;1.30;98.10;;;;;;4942562;28;20027;-85
2021/12/26 07:39:55;;;;;;;4.63;2.77;;;1.30;98.20;;;;;;4942611;28;20027;-85
2021/12/26 07:42:21;;;;;;;5.50;2.57;;;1.40;98.10;;;;;;4942490;28;20506;-86
2021/12/26 07:45:22;;;;;;;6.67;2.67;;;1.40;98.20;;;;;;4963583;28;20035;-87
2021/12/26 07:47:53;;;;;;;5.87;2.63;;;1.50;98.20;;;;;;4942731;28;20031;-85
2021/12/26 07:50:18;;;;;;;6.20;2.60;;;1.40;98.70;;;;;;4958270;28;20035;-85
2021/12/26 07:53:08;;;;;;;5.20;2.60;;;1.40;98.50;;;;;;4961282;28;20093;-86
2021/12/26 07:55:53;;;;;;;;;;;1.40;98.50;;;;;;4961741;28;20073;-85
2021/12/26 07:58:41;;;;;;;8.00;3.33;;;1.40;98.70;;;;;;4956032;28;20296;-86
2021/12/26 08:01:28;;;;;;;9.57;3.53;;;1.50;98.80;;;;;;4960675;28;20436;-85
2021/12/26 08:04:15;;;;;;;6.10;3.00;;;1.50;99.00;;;;;;4950809;28;20035;-85
2021/12/26 08:07:00;;;;;;;5.63;2.87;;;1.40;99.00;;;;;;4960916;28;20504;-86
2021/12/26 08:09:27;;;;;;;5.40;2.80;;;1.50;99.10;;;;;;4957627;28;20023;-85
2021/12/26 08:11:52;;;;;;;6.67;3.23;;;1.50;99.10;;;;;;4957977;28;20033;-86
2021/12/26 08:14:18;;;;;;;5.50;2.57;;;1.60;99.10;;;;;;4941956;28;20493;-86
2021/12/26 08:16:45;;;;;;;6.77;2.93;;;1.60;98.80;;;;;;4942013;28;20438;-86
2021/12/26 08:19:10;;;;;;;6.40;2.93;;;1.60;98.60;;;;;;4941689;28;20074;-85
2021/12/26 08:21:36;;;;;;;6.17;2.70;;;1.60;98.40;;;;;;4943244;28;20062;-85
2021/12/26 08:24:03;;;;;;;5.17;2.80;;;1.60;98.60;;;;;;4975806;28;20106;-86
2021/12/26 08:26:29;;;;;;;6.93;2.93;;;1.60;98.70;;;;;;4941861;28;20050;-85
2021/12/26 08:28:55;;;;;;;5.77;2.90;;;1.50;98.70;;;;;;4941384;28;20023;-86
2021/12/26 08:31:22;;;;;;;6.93;2.77;;;1.60;98.80;;;;;;4957550;28;20042;-85
2021/12/26 08:33:49;;;;;;;7.17;2.80;;;1.60;99.00;;;;;;4941840;28;20101;-85
2021/12/26 08:36:18;;;;;;;6.43;2.97;;;1.60;99.30;;;;;;4942694;28;20497;-86
2021/12/26 08:38:44;;;;;;;6.83;3.47;;;1.60;99.40;;;;;;4957105;28;20034;-85
2021/12/26 08:41:10;;;;;;;6.10;2.97;;;1.60;99.20;;;;;;4957355;28;20039;-85
2021/12/26 08:43:36;;;;;;;5.13;2.93;;;1.70;99.20;;;;;;4957455;28;20040;-86
2021/12/26 08:46:02;;;;;;;7.43;3.27;;;1.70;99.00;;;;;;4941490;28;20034;-87
2021/12/26 08:48:29;;;;;;;6.43;3.40;;;1.80;99.20;;;;;;4956933;28;20038;-85
2021/12/26 08:50:56;;;;;;;5.70;2.87;;;1.70;99.30;;;;;;4974536;28;20109;-85
2021/12/26 08:53:26;;;;;;;6.37;3.37;;;1.80;99.10;;;;;;4942243;28;20038;-86
2021/12/26 08:55:53;;;;;;;7.13;2.93;;;1.80;99.10;;;;;;4942451;28;20035;-86
2021/12/26 08:58:19;;;;;;;5.70;3.27;;;1.80;99.60;;;;;;4942407;28;20047;-86
2021/12/26 09:00:45;;;;;;;6.47;3.30;;;1.80;99.50;;;;;;4957911;28;20613;-86
2021/12/26 09:03:11;;;;;;;5.83;3.27;;;1.90;99.50;;;;;;4942067;28;20486;-86
2021/12/26 09:05:36;;;;;;;6.33;3.20;;;1.80;99.40;;;;;;4942272;28;20038;-86
2021/12/26 09:08:03;;;;;;;4.77;2.80;;;1.90;99.40;;;;;;4941136;28;20030;-85
2021/12/26 09:10:29;;;;;;;7.17;3.50;;;1.80;99.60;;;;;;4956796;28;20394;-86
2021/12/26 09:12:55;;;;;;;7.57;3.90;;;1.80;99.70;;;;;;4939991;28;20115;-86
2021/12/26 09:15:22;;;;;;;7.27;3.83;;;1.80;99.50;;;;;;4956704;28;20182;-86
2021/12/26 09:17:48;;;;;;;7.77;3.50;;;1.80;99.70;;;;;;4941160;28;20034;-84
2021/12/26 09:20:14;;;;;;;6.93;3.27;;;1.80;99.50;;;;;;4941395;28;20042;-85
2021/12/26 09:22:42;;;;;;;7.57;3.00;;;1.80;99.50;;;;;;4941408;28;20416;-85
2021/12/26 09:25:09;;;;;;;7.03;3.23;;;1.80;99.50;;;;;;4940181;28;20030;-86
2021/12/26 09:27:35;;;;;;;6.77;3.20;;;1.80;99.80;;;;;;4972898;28;20054;-85
2021/12/26 09:30:02;;;;;;;7.97;3.50;;;1.90;99.70;;;;;;4955703;28;20486;-86
2021/12/26 09:32:28;;;;;;;7.67;3.57;;;1.90;99.70;;;;;;4973155;28;20041;-85
2021/12/26 09:34:54;;;;;;;12.43;3.40;;;1.90;99.80;;;;;;4955897;28;20102;-86
2021/12/26 09:37:20;;;;;;;6.80;3.60;;;1.90;99.50;;;;;;4939957;28;20378;-86
2021/12/26 09:39:46;;;;;;;6.43;3.43;;;1.90;99.90;;;;;;4972584;28;20047;-86
2021/12/26 09:42:11;;;;;;;8.23;3.87;;;2.00;99.60;;;;;;4939592;28;20145;-86
2021/12/26 09:44:38;;;;;;;6.53;3.47;;;2.00;99.50;;;;;;4955766;28;20542;-86
2021/12/26 09:47:05;;;;;;;6.63;3.40;;;2.00;99.40;;;;;;4939668;28;20058;-85
2021/12/26 09:49:32;;;;;;;6.47;3.23;;;2.00;99.50;;;;;;4939128;28;20030;-86
2021/12/26 09:51:58;;;;;;;6.10;3.30;;;2.00;99.70;;;;;;4939628;28;20460;-87
2021/12/26 09:54:23;;;;;;;6.73;3.40;;;2.10;99.70;;;;;;4939550;28;20080;-86
2021/12/26 09:56:49;;;;;;;7.43;3.73;;;2.10;99.80;;;;;;4939483;28;20031;-85
2021/12/26 09:59:17;;;;;;;5.30;3.33;;;2.10;99.90;;;;;;4938868;28;20038;-86
2021/12/26 10:01:52;;;;;;;7.22;3.90;;;2.20;99.90;;;;;;4955222;28;20512;-86
2021/12/26 10:04:25;;;;;;;6.50;3.40;;;2.20;99.90;;;;;;4939542;28;20129;-86
2021/12/26 10:07:01;;;;;;;7.07;3.83;;;2.30;99.90;;;;;;4972673;28;20022;-85
2021/12/26 10:09:27;;;;;;;7.43;3.80;;;2.30;99.90;;;;;;4899708;28;1140742;-86
2021/12/26 10:11:59;;;;;;;6.43;3.97;;;2.40;99.90;;;;;;4973241;28;20034;-85
2021/12/26 10:14:32;;;;;;;6.00;3.43;;;2.40;99.90;;;;;;4940183;28;20035;-86
2021/12/26 10:17:27;;;;;;;7.80;3.80;;;2.40;99.90;;;;;;4956163;28;20042;-85
2021/12/26 10:20:04;;;;;;;7.53;4.37;;;2.40;99.90;;;;;;4934397;28;20398;-86
2021/12/26 10:22:30;;;;;;;8.10;3.97;;;2.40;99.90;;;;;;4955663;28;20031;-86
2021/12/26 10:24:56;;;;;;;8.17;3.93;;;2.40;99.90;;;;;;4943015;28;20393;-86
2021/12/26 10:27:31;;;;;;;11.67;3.77;;;2.50;99.90;;;;;;4943720;28;20030;-86
2021/12/26 10:30:00;;;;;;;7.67;3.40;;;2.50;99.90;;;;;;4943637;28;20121;-86
2021/12/26 10:32:37;;;;;;;6.97;3.73;;;2.50;99.90;;;;;;4959776;28;20038;-86
2021/12/26 10:35:15;;;;;;;7.40;4.00;;;2.50;99.90;;;;;;4959709;28;20042;-86
2021/12/26 10:37:50;;;;;;;7.90;4.50;;;2.50;99.90;;;;;;4959271;28;20493;-86
2021/12/26 10:40:26;;;;;;;9.50;4.50;;;2.60;99.90;;;;;;4959279;28;20129;-85
2021/12/26 10:42:58;;;;;;;10.27;4.43;;;2.60;99.90;;;;;;4944847;28;20456;-86
2021/12/26 10:45:30;;;;;;;8.10;4.20;;;2.60;99.90;;;;;;4946396;28;20118;-86
2021/12/26 10:48:02;;;;;;;9.17;4.30;;;2.70;99.90;;;;;;4946409;28;20042;-86
2021/12/26 10:50:36;;;;;;;7.03;4.13;;;2.70;99.90;;;;;;4959768;28;20038;-85
2021/12/26 10:53:12;;;;;;;9.43;4.20;;;2.70;99.90;;;;;;4959520;28;20030;-86
2021/12/26 10:55:40;;;;;;;8.03;4.50;;;2.80;99.90;;;;;;4943575;28;20121;-86
2021/12/26 10:58:14;;;;;;;8.83;4.73;;;2.80;99.90;;;;;;4958949;28;20041;-86
2021/12/26 11:00:45;;;;;;;8.07;4.60;;;2.80;99.90;;;;;;4943451;28;20037;-86
2021/12/26 11:03:14;;;;;;;9.60;5.60;;;2.80;99.90;;;;;;4960123;28;20027;-85
2021/12/26 11:05:45;;;;;;;8.77;4.93;;;2.80;99.90;;;;;;4959633;28;20478;-86
2021/12/26 11:08:26;;;;;;;10.57;5.53;;;2.90;99.90;;;;;;4959647;28;20031;-85
2021/12/26 11:10:53;;;;;;;10.47;4.93;;;2.90;99.90;;;;;;4976749;28;20041;-85
2021/12/26 11:13:31;;;;;;;8.43;4.90;;;2.90;99.90;;;;;;4959381;28;20081;-86
2021/12/26 11:15:59;;;;;;;11.00;5.07;;;3.00;99.90;;;;;;4959575;28;20210;-86
2021/12/26 11:18:26;;;;;;;8.10;4.63;;;3.00;99.90;;;;;;4959005;28;20031;-86
2021/12/26 11:20:53;;;;;;;9.27;4.87;;;3.00;99.90;;;;;;4942490;28;20031;-86
2021/12/26 11:23:27;;;;;;;10.43;4.90;;;3.10;99.90;;;;;;4976308;28;20027;-86
2021/12/26 11:25:54;;;;;;;9.00;5.00;;;3.10;99.90;;;;;;4958760;28;20031;-86
2021/12/26 11:28:26;;;;;;;10.33;5.00;;;3.10;99.90;;;;;;4958416;28;20046;-86
2021/12/26 11:31:13;;;;;;;10.37;5.03;;;3.20;99.90;;;;;;4942555;28;20026;-86
2021/12/26 11:33:40;;;;;;;10.23;5.57;;;3.20;99.90;;;;;;4958688;28;20039;-86
2021/12/26 11:36:10;;;;;;;8.70;5.13;;;3.30;99.90;;;;;;4957967;28;20027;-86
2021/12/26 11:38:36;;;;;;;9.80;5.27;;;3.30;99.90;;;;;;4942296;28;20367;-86
2021/12/26 11:41:31;;;;;;;10.07;4.93;;;3.40;99.90;;;;;;4931669;28;20086;-86
2021/12/26 11:44:34;;;;;;;10.87;5.23;;;3.40;99.90;;;;;;4961571;28;20050;-85
2021/12/26 11:47:25;;;;;;;9.37;5.20;;;3.50;99.90;;;;;;4961597;28;20038;-85
2021/12/26 11:50:34;;;;;;;14.13;5.93;;;3.60;99.90;;;;;;4961405;28;20054;-86
2021/12/26 11:53:59;;;;;;;9.98;4.93;;;3.60;99.90;;;;;;4976676;28;20044;-88
2021/12/26 11:56:53;;;;;;;9.23;5.57;;;3.60;99.90;;;;;;4944889;28;20027;-86
2021/12/26 11:59:37;;;;;;;8.23;4.85;;;3.60;99.90;;;;;;4958476;28;20042;-86
2021/12/26 12:02:03;;;;;;;9.73;5.27;;;3.60;99.90;;;;;;4943251;28;20045;-86
2021/12/26 12:04:29;;;;;;;8.67;5.37;;;3.70;99.90;;;;;;4959544;28;20090;-86
2021/12/26 12:07:02;;;;;;;10.10;5.97;;;3.70;99.90;;;;;;4942804;28;20031;-86
2021/12/26 12:12:22;;;;;;;9.37;5.97;;;3.70;99.90;;;;;;4920401;29;20051;-89
